createdAt,value
2022-11-29T00:01:29.192Z,100169.16
2022-11-29T00:03:57.977Z,100162.16
2022-11-29T00:06:27.138Z,100112.56
2022-11-29T00:08:55.106Z,100099.09
2022-11-29T00:11:37.590Z,100098.28
2022-11-29T00:14:05.508Z,100168.56
2022-11-29T00:16:32.973Z,100160.66
2022-11-29T00:19:01.809Z,100170.28
2022-11-29T00:21:29.356Z,100167.63
2022-11-29T00:23:56.822Z,100165.00
2022-11-29T00:26:24.253Z,100165.94
2022-11-29T00:28:51.669Z,100166.75
2022-11-29T00:31:20.255Z,100118.97
2022-11-29T00:33:47.693Z,100167.84
2022-11-29T00:36:16.696Z,100167.84
2022-11-29T00:38:44.181Z,100162.56
2022-11-29T00:41:12.060Z,100097.56
2022-11-29T00:43:39.583Z,100167.09
2022-11-29T00:46:07.948Z,100170.66
2022-11-29T00:48:35.525Z,100167.09
2022-11-29T00:51:03.186Z,100169.72
2022-11-29T00:53:31.950Z,100126.97
2022-11-29T00:55:59.386Z,100167.22
2022-11-29T00:58:27.306Z,100168.03
2022-11-29T01:00:55.058Z,100171.53
2022-11-29T01:03:22.620Z,100160.25
2022-11-29T01:05:50.084Z,100170.88
2022-11-29T01:08:17.687Z,100173.44
2022-11-29T01:10:46.428Z,100168.22
2022-11-29T01:13:13.840Z,100172.63
2022-11-29T01:15:41.498Z,100176.16
2022-11-29T01:18:08.929Z,100170.94
2022-11-29T01:20:36.356Z,100176.16
2022-11-29T01:23:03.804Z,100177.06
2022-11-29T01:25:31.998Z,100172.78
2022-11-29T01:28:00.786Z,100173.63
2022-11-29T01:30:28.265Z,100179.91
2022-11-29T01:32:55.770Z,100179.91
2022-11-29T01:35:23.273Z,100175.72
2022-11-29T01:37:50.725Z,100179.03
2022-11-29T01:40:18.380Z,100182.63
2022-11-29T01:42:45.810Z,100180.03
2022-11-29T01:45:22.761Z,100188.78
2022-11-29T01:47:50.244Z,100184.56
2022-11-29T01:50:17.772Z,100184.56
2022-11-29T01:52:45.199Z,100182.88
2022-11-29T01:55:12.617Z,100188.97
2022-11-29T01:57:41.330Z,100195.13
2022-11-29T02:00:10.917Z,100154.78
2022-11-29T02:02:42.051Z,100157.41
2022-11-29T02:05:10.108Z,100196.06
2022-11-29T02:07:37.619Z,100192.56
2022-11-29T02:10:05.809Z,100195.19
2022-11-29T02:12:39.101Z,100207.44
2022-11-29T02:15:17.385Z,100167.91
2022-11-29T02:17:53.397Z,100199.59
2022-11-29T02:20:56.319Z,100071.69
2022-11-29T02:23:46.612Z,100201.34
2022-11-29T02:26:19.393Z,100178.38
2022-11-29T02:28:55.967Z,100203.16
2022-11-29T02:31:49.842Z,100205.00
2022-11-29T02:34:47.894Z,100202.44
2022-11-29T02:37:29.530Z,100164.78
2022-11-29T02:40:01.949Z,100206.88
2022-11-29T02:42:59.652Z,100206.88
2022-11-29T02:45:36.778Z,100211.34
2022-11-29T02:48:12.958Z,100168.41
2022-11-29T02:50:43.031Z,100174.56
2022-11-29T02:53:13.789Z,100165.28
2022-11-29T02:55:44.277Z,100193.56
2022-11-29T02:58:17.761Z,100230.91
2022-11-29T03:00:49.544Z,100219.50
2022-11-29T03:03:21.349Z,100217.78
2022-11-29T03:05:51.850Z,100220.38
2022-11-29T03:08:23.587Z,100218.56
2022-11-29T03:10:56.595Z,100229.13
2022-11-29T03:13:29.020Z,100174.00
2022-11-29T03:15:59.442Z,100216.19
2022-11-29T03:18:34.020Z,100226.41
2022-11-29T03:21:09.567Z,100223.84
2022-11-29T03:23:38.565Z,100241.53
2022-11-29T03:26:07.392Z,100240.66
2022-11-29T03:28:36.919Z,100205.38
2022-11-29T03:31:07.704Z,100244.22
2022-11-29T03:33:40.097Z,100219.44
2022-11-29T03:36:11.361Z,100241.72
2022-11-29T03:38:40.778Z,100245.19
2022-11-29T03:41:15.091Z,100240.91
2022-11-29T03:43:44.111Z,100221.44
2022-11-29T03:46:12.953Z,100245.38
2022-11-29T03:48:41.803Z,100246.25
2022-11-29T03:51:12.932Z,100250.72
2022-11-29T03:53:43.058Z,100249.88
2022-11-29T03:56:23.346Z,100246.44
2022-11-29T03:58:53.093Z,100257.78
2022-11-29T04:01:44.415Z,100255.97
2022-11-29T04:04:49.612Z,100261.25
2022-11-29T04:07:29.297Z,100258.56
2022-11-29T04:10:15.279Z,100260.34
2022-11-29T04:13:02.701Z,100258.59
2022-11-29T04:16:03.726Z,100258.59
2022-11-29T04:18:56.008Z,100263.00
2022-11-29T04:21:56.864Z,100263.00
2022-11-29T04:24:54.582Z,100262.13
2022-11-29T04:27:31.335Z,100263.09
2022-11-29T04:30:07.170Z,100263.06
2022-11-29T04:33:02.927Z,100256.97
2022-11-29T04:36:05.820Z,100271.03
2022-11-29T04:39:05.660Z,100266.63
2022-11-29T04:41:54.773Z,100254.81
2022-11-29T04:44:40.129Z,100264.38
2022-11-29T04:47:29.683Z,100285.97
2022-11-29T04:50:09.713Z,100259.22
2022-11-29T04:55:00.195Z,100251.69
2022-11-29T04:57:33.540Z,100290.31
2022-11-29T05:00:07.134Z,100284.38
2022-11-29T05:02:36.151Z,100257.00
2022-11-29T05:05:07.710Z,100290.44
2022-11-29T05:07:37.275Z,100304.28
2022-11-29T05:10:13.341Z,100300.00
2022-11-29T05:12:46.140Z,100303.44
2022-11-29T05:15:38.836Z,100292.03
2022-11-29T05:18:08.503Z,100298.97
2022-11-29T05:20:39.922Z,100290.31
2022-11-29T05:23:18.902Z,100308.28
2022-11-29T05:25:47.893Z,100306.63
2022-11-29T05:28:21.159Z,100312.59
2022-11-29T05:31:02.332Z,100316.00
2022-11-29T05:33:38.685Z,100285.09
2022-11-29T05:36:08.861Z,100310.78
2022-11-29T05:38:41.728Z,100324.72
2022-11-29T05:41:16.416Z,100335.19
2022-11-29T05:43:54.579Z,100332.50
2022-11-29T05:46:23.707Z,100334.22
2022-11-29T05:48:57.685Z,100298.16
2022-11-29T05:51:31.900Z,100333.25
2022-11-29T05:54:03.044Z,100303.06
2022-11-29T05:56:37.255Z,100340.97
2022-11-29T05:59:08.495Z,100335.72
2022-11-29T06:01:38.588Z,100348.78
2022-11-29T06:04:11.674Z,100345.19
2022-11-29T06:06:44.304Z,100344.34
2022-11-29T06:09:16.070Z,100348.53
2022-11-29T06:11:45.343Z,100354.56
2022-11-29T06:14:22.617Z,100360.53
2022-11-29T06:17:01.764Z,100318.56
2022-11-29T06:19:39.177Z,100362.94
2022-11-29T06:22:20.802Z,100286.47
2022-11-29T06:24:58.326Z,100368.78
2022-11-29T06:27:35.193Z,100289.63
2022-11-29T06:30:07.704Z,100379.03
2022-11-29T06:32:40.085Z,100344.41
2022-11-29T06:35:10.361Z,100353.41
2022-11-29T06:37:39.337Z,100309.47
2022-11-29T06:40:09.586Z,100366.72
2022-11-29T06:42:37.011Z,100358.94
2022-11-29T06:45:07.322Z,100377.44
2022-11-29T06:47:38.505Z,100384.97
2022-11-29T06:50:14.639Z,100377.28
2022-11-29T06:52:44.707Z,100341.78
2022-11-29T06:55:15.925Z,100394.91
2022-11-29T06:57:54.577Z,100384.59
2022-11-29T07:00:25.520Z,100345.72
2022-11-29T07:03:00.617Z,100378.81
2022-11-29T07:05:28.827Z,100385.41
2022-11-29T07:07:57.443Z,100310.75
2022-11-29T07:10:25.568Z,100390.13
2022-11-29T07:12:53.452Z,100404.88
2022-11-29T07:15:23.252Z,100400.09
2022-11-29T07:17:58.744Z,100406.75
2022-11-29T07:20:30.144Z,100409.03
2022-11-29T07:23:01.959Z,100354.81
2022-11-29T07:25:33.924Z,100413.66
2022-11-29T07:28:06.103Z,100419.59
2022-11-29T07:30:37.456Z,100415.41
2022-11-29T07:33:07.344Z,100431.47
2022-11-29T07:35:38.239Z,100438.34
2022-11-29T07:38:10.696Z,100400.94
2022-11-29T07:40:41.693Z,100437.84
2022-11-29T07:43:17.535Z,100439.47
2022-11-29T07:45:46.665Z,100434.09
2022-11-29T07:48:14.120Z,100440.13
2022-11-29T07:50:41.609Z,100411.09
2022-11-29T07:53:10.395Z,100446.97
2022-11-29T07:55:37.859Z,100443.22
2022-11-29T07:58:05.305Z,100447.47
2022-11-29T08:00:32.789Z,100448.22
2022-11-29T08:03:01.589Z,100456.59
2022-11-29T08:05:29.023Z,100452.84
2022-11-29T08:07:56.627Z,100460.63
2022-11-29T08:10:24.107Z,100459.72
2022-11-29T08:12:51.609Z,100407.41
2022-11-29T08:15:19.363Z,100459.50
2022-11-29T08:17:46.797Z,100462.97
2022-11-29T08:20:16.424Z,100458.41
2022-11-29T08:22:43.998Z,100462.69
2022-11-29T08:25:11.488Z,100470.44
2022-11-29T08:27:39.052Z,100391.22
2022-11-29T08:30:07.639Z,100477.31
2022-11-29T08:32:35.211Z,100470.53
2022-11-29T08:35:02.747Z,100474.34
2022-11-29T08:37:31.493Z,100487.13
2022-11-29T08:39:58.963Z,100475.25
2022-11-29T08:42:26.425Z,100475.78
2022-11-29T08:44:53.877Z,100475.56
2022-11-29T08:47:36.561Z,100486.78
2022-11-29T08:50:04.566Z,100481.25
2022-11-29T08:52:52.007Z,100488.09
2022-11-29T08:55:19.863Z,100489.78
2022-11-29T08:57:47.313Z,100487.06
2022-11-29T09:00:15.808Z,100496.75
2022-11-29T09:02:43.263Z,100495.81
2022-11-29T09:05:11.052Z,100497.44
2022-11-29T09:07:39.884Z,100502.50
2022-11-29T09:10:08.790Z,100504.22
2022-11-29T09:12:36.421Z,100507.72
2022-11-29T09:15:04.669Z,100493.16
2022-11-29T09:17:32.110Z,100510.22
2022-11-29T09:19:59.551Z,100516.38
2022-11-29T09:22:27.003Z,100512.69
2022-11-29T09:24:55.776Z,100517.25
2022-11-29T09:27:23.197Z,100521.53
2022-11-29T09:29:50.640Z,100471.94
2022-11-29T09:32:18.060Z,100525.88
2022-11-29T09:34:45.881Z,100526.66
2022-11-29T09:37:13.519Z,100534.63
2022-11-29T09:39:41.576Z,100531.97
2022-11-29T09:42:15.883Z,100531.44
2022-11-29T09:44:50.709Z,100493.63
2022-11-29T09:47:25.921Z,100530.19
2022-11-29T09:49:57.245Z,100538.38
2022-11-29T09:52:31.413Z,100542.91
2022-11-29T09:55:02.530Z,100483.03
2022-11-29T09:57:31.309Z,100536.91
2022-11-29T09:59:59.841Z,100501.34
2022-11-29T10:02:31.007Z,100476.34
2022-11-29T10:05:01.509Z,100472.81
2022-11-29T10:07:31.256Z,100543.19
2022-11-29T10:10:01.936Z,100534.38
2022-11-29T10:12:34.872Z,100543.59
2022-11-29T10:15:04.384Z,100484.56
2022-11-29T10:17:34.797Z,100477.63
2022-11-29T10:20:05.421Z,100550.78
2022-11-29T10:22:38.556Z,100541.28
2022-11-29T10:25:06.735Z,100472.97
2022-11-29T10:27:35.510Z,100541.56
2022-11-29T10:30:02.955Z,100542.44
2022-11-29T10:32:31.863Z,100468.53
2022-11-29T10:35:00.763Z,100544.13
2022-11-29T10:37:32.369Z,100544.13
2022-11-29T10:40:04.122Z,100483.81
2022-11-29T10:42:49.791Z,100546.75
2022-11-29T10:45:20.180Z,100545.56
2022-11-29T10:47:48.180Z,100507.13
2022-11-29T10:50:18.429Z,100553.44
2022-11-29T10:52:45.855Z,100549.88
2022-11-29T10:55:13.885Z,100492.38
2022-11-29T10:58:08.629Z,100549.69
2022-11-29T11:00:45.435Z,100550.53
2022-11-29T11:03:25.500Z,100546.00
2022-11-29T11:06:01.101Z,100535.00
2022-11-29T11:08:28.819Z,100493.84
2022-11-29T11:11:01.176Z,100545.91
2022-11-29T11:13:30.400Z,100484.94
2022-11-29T11:16:00.326Z,100543.97
2022-11-29T11:18:29.130Z,100495.00
2022-11-29T11:20:57.939Z,100540.44
2022-11-29T11:23:26.684Z,100497.63
2022-11-29T11:25:58.223Z,100501.66
2022-11-29T11:28:27.109Z,100543.63
2022-11-29T11:30:55.576Z,100548.78
2022-11-29T11:33:25.947Z,100551.44
2022-11-29T11:36:08.019Z,100549.53
2022-11-29T11:38:36.039Z,100546.13
2022-11-29T11:41:13.559Z,100546.97
2022-11-29T11:43:41.212Z,100557.59
2022-11-29T11:46:09.996Z,100557.50
2022-11-29T11:48:40.289Z,100552.97
2022-11-29T11:51:09.028Z,100561.72
2022-11-29T11:53:37.289Z,100558.13
2022-11-29T11:56:06.258Z,100558.03
2022-11-29T11:58:34.667Z,100562.31
2022-11-29T12:01:14.381Z,100558.81
2022-11-29T12:03:50.715Z,100504.09
2022-11-29T12:06:26.037Z,100564.81
2022-11-29T12:08:54.696Z,100558.66
2022-11-29T12:11:22.165Z,100570.91
2022-11-29T12:13:51.820Z,100565.59
2022-11-29T12:16:27.168Z,100555.28
2022-11-29T12:18:58.810Z,100572.19
2022-11-29T12:21:27.327Z,100572.09
2022-11-29T12:23:57.663Z,100572.09
2022-11-29T12:26:56.007Z,100576.56
2022-11-29T12:29:15.184Z,100586.25
2022-11-29T12:31:58.070Z,100557.41
2022-11-29T12:34:47.506Z,100599.13
2022-11-29T12:37:17.145Z,100588.56
2022-11-29T12:39:49.925Z,100584.97
2022-11-29T12:42:22.245Z,100591.94
2022-11-29T12:44:54.248Z,100599.03
2022-11-29T12:47:35.546Z,100600.72
2022-11-29T12:50:12.929Z,100597.25
2022-11-29T12:52:43.560Z,100580.94
2022-11-29T12:55:17.487Z,100587.78
2022-11-29T12:57:47.388Z,100557.25
2022-11-29T13:00:16.373Z,100585.22
2022-11-29T13:02:53.882Z,100601.53
2022-11-29T13:05:27.782Z,100592.09
2022-11-29T13:08:02.246Z,100503.59
2022-11-29T13:10:33.957Z,100604.97
2022-11-29T13:13:03.984Z,100607.53
2022-11-29T13:15:36.626Z,100558.56
2022-11-29T13:18:06.159Z,100608.38
2022-11-29T13:20:39.084Z,100611.97
2022-11-29T13:23:12.574Z,100608.44
2022-11-29T13:25:41.140Z,100526.22
2022-11-29T13:28:12.316Z,100608.38
2022-11-29T13:30:39.785Z,100609.25
2022-11-29T13:33:12.255Z,100578.44
2022-11-29T13:35:43.324Z,100610.94
2022-11-29T13:38:14.229Z,100615.50
2022-11-29T13:40:48.191Z,100610.94
2022-11-29T13:43:18.328Z,100611.81
2022-11-29T13:45:47.732Z,100616.34
2022-11-29T13:48:37.013Z,100604.34
2022-11-29T13:51:38.816Z,100613.78
2022-11-29T13:54:07.052Z,100552.03
2022-11-29T13:56:42.836Z,100525.88
2022-11-29T13:59:18.195Z,100604.88
2022-11-29T14:01:47.264Z,100618.66
2022-11-29T14:04:25.507Z,100518.25
2022-11-29T14:07:04.212Z,100618.66
2022-11-29T14:09:34.692Z,100623.13
2022-11-29T14:12:04.339Z,100623.13
2022-11-29T14:14:34.885Z,100626.72
2022-11-29T14:17:02.931Z,100628.47
2022-11-29T14:19:33.845Z,100633.78
2022-11-29T14:22:19.634Z,100493.69
2022-11-29T14:25:00.829Z,100631.13
2022-11-29T14:27:55.083Z,100623.91
2022-11-29T14:30:48.690Z,100628.47
2022-11-29T14:33:27.740Z,100628.47
2022-11-29T14:36:00.905Z,100627.94
2022-11-29T14:38:31.456Z,100579.03
2022-11-29T14:41:00.261Z,100631.88
2022-11-29T14:43:30.522Z,100640.72
2022-11-29T14:46:08.174Z,100627.94
2022-11-29T14:48:35.699Z,100643.19
2022-11-29T14:51:09.881Z,100607.34
2022-11-29T14:53:38.760Z,100568.66
2022-11-29T14:56:38.726Z,100628.78
2022-11-29T14:59:46.485Z,100645.06
2022-11-29T15:02:24.317Z,100645.94
2022-11-29T15:04:52.158Z,100564.81
2022-11-29T15:07:24.509Z,100655.53
2022-11-29T15:09:53.307Z,100656.41
2022-11-29T15:12:22.590Z,100584.59
2022-11-29T15:14:52.670Z,100571.56
2022-11-29T15:17:24.359Z,100660.09
2022-11-29T15:20:16.742Z,100664.47
2022-11-29T15:22:47.305Z,100637.09
2022-11-29T15:25:18.191Z,100563.06
2022-11-29T15:27:55.099Z,100659.06
2022-11-29T15:30:29.004Z,100667.91
2022-11-29T15:32:56.548Z,100661.72
2022-11-29T15:35:24.384Z,100660.00
2022-11-29T15:37:51.836Z,100666.16
2022-11-29T15:40:21.792Z,100631.97
2022-11-29T15:42:50.524Z,100596.69
2022-11-29T15:45:29.365Z,100662.75
2022-11-29T15:47:57.338Z,100659.66
2022-11-29T15:50:26.562Z,100665.91
2022-11-29T15:52:55.279Z,100669.56
2022-11-29T15:55:24.131Z,100578.25
2022-11-29T15:57:52.138Z,100618.00
2022-11-29T16:00:22.949Z,100670.19
2022-11-29T16:02:51.529Z,100670.19
2022-11-29T16:05:21.425Z,100671.91
2022-11-29T16:07:49.389Z,100671.91
2022-11-29T16:10:17.736Z,100669.25
2022-11-29T16:12:53.673Z,100671.91
2022-11-29T16:15:26.416Z,100673.03
2022-11-29T16:17:53.899Z,100680.22
2022-11-29T16:20:24.188Z,100626.41
2022-11-29T16:23:14.113Z,100680.38
2022-11-29T16:25:56.743Z,100631.88
2022-11-29T16:28:26.242Z,100689.63
2022-11-29T16:30:53.712Z,100694.16
2022-11-29T16:33:23.073Z,100689.00
2022-11-29T16:35:50.517Z,100692.78
2022-11-29T16:38:20.312Z,100559.66
2022-11-29T16:41:01.626Z,100628.47
2022-11-29T16:43:53.536Z,100695.84
2022-11-29T16:46:31.946Z,100696.94
2022-11-29T16:49:00.727Z,100622.63
2022-11-29T16:51:33.016Z,100689.63
2022-11-29T16:54:20.062Z,100695.78
2022-11-29T16:56:47.499Z,100626.53
2022-11-29T16:59:25.115Z,100694.78
2022-11-29T17:01:54.703Z,100638.16
2022-11-29T17:04:24.187Z,100700.97
2022-11-29T17:06:52.635Z,100703.84
2022-11-29T17:09:25.152Z,100687.66
2022-11-29T17:11:53.062Z,100709.41
2022-11-29T17:14:21.818Z,100714.88
2022-11-29T17:16:50.357Z,100713.34
2022-11-29T17:19:18.053Z,100709.91
2022-11-29T17:21:45.536Z,100720.69
2022-11-29T17:24:14.343Z,100621.22
2022-11-29T17:26:41.894Z,100722.69
2022-11-29T17:29:10.798Z,100672.31
2022-11-29T17:31:39.726Z,100723.88
2022-11-29T17:34:07.239Z,100650.16
2022-11-29T17:36:34.684Z,100722.47
2022-11-29T17:39:02.322Z,100733.22
2022-11-29T17:41:30.416Z,100725.44
2022-11-29T17:43:57.984Z,100729.06
2022-11-29T17:46:26.793Z,100678.81
2022-11-29T17:48:55.651Z,100616.97
2022-11-29T17:51:50.516Z,100736.56
2022-11-29T17:54:11.387Z,100732.38
2022-11-29T17:56:39.021Z,100732.75
2022-11-29T17:59:06.687Z,100727.81
2022-11-29T18:01:35.581Z,100743.44
2022-11-29T18:04:05.562Z,100741.81
2022-11-29T18:06:35.764Z,100729.00
2022-11-29T18:09:03.262Z,100747.41
2022-11-29T18:11:32.978Z,100742.47
2022-11-29T18:14:06.517Z,100745.91
2022-11-29T18:16:35.019Z,100712.59
2022-11-29T18:19:05.103Z,100745.19
2022-11-29T18:21:32.749Z,100751.50
2022-11-29T18:24:00.480Z,100682.75
2022-11-29T18:26:28.260Z,100695.84
2022-11-29T18:28:55.723Z,100759.75
2022-11-29T18:31:23.807Z,100761.59
2022-11-29T18:33:52.788Z,100757.31
2022-11-29T18:36:22.732Z,100757.38
2022-11-29T18:38:50.213Z,100757.53
2022-11-29T18:41:18.538Z,100740.38
2022-11-29T18:43:46.075Z,100757.66
2022-11-29T18:46:14.318Z,100751.03
2022-11-29T18:48:41.829Z,100685.75
2022-11-29T18:51:11.466Z,100721.94
2022-11-29T18:53:40.326Z,100765.03
2022-11-29T18:56:09.811Z,100685.00
2022-11-29T18:58:37.917Z,100766.09
2022-11-29T19:01:06.507Z,100771.41
2022-11-29T19:03:35.811Z,100768.81
2022-11-29T19:06:03.304Z,100769.81
2022-11-29T19:08:30.737Z,100763.72
2022-11-29T19:10:59.507Z,100769.06
2022-11-29T19:13:26.940Z,100768.28
2022-11-29T19:15:54.645Z,100727.31
2022-11-29T19:18:22.201Z,100681.47
2022-11-29T19:20:49.665Z,100770.19
2022-11-29T19:23:17.113Z,100771.19
2022-11-29T19:25:44.519Z,100767.75
2022-11-29T19:28:14.350Z,100770.47
2022-11-29T19:30:41.958Z,100768.81
2022-11-29T19:33:09.460Z,100769.75
2022-11-29T19:35:37.004Z,100768.88
2022-11-29T19:38:04.453Z,100769.81
2022-11-29T19:40:31.923Z,100769.91
2022-11-29T19:42:59.400Z,100770.88
2022-11-29T19:45:28.180Z,100770.94
2022-11-29T19:47:55.632Z,100774.47
2022-11-29T19:50:23.061Z,100776.31
2022-11-29T19:52:50.627Z,100771.06
2022-11-29T19:55:18.150Z,100779.16
2022-11-29T19:57:45.614Z,100781.03
2022-11-29T20:00:14.359Z,100777.56
2022-11-29T20:02:43.159Z,100786.53
2022-11-29T20:05:11.835Z,100786.59
2022-11-29T20:07:39.395Z,100786.72
2022-11-29T20:10:08.030Z,100785.84
2022-11-29T20:12:35.463Z,100788.56
2022-11-29T20:15:02.883Z,100786.94
2022-11-29T20:17:30.359Z,100789.56
2022-11-29T20:19:59.158Z,100793.19
2022-11-29T20:22:26.664Z,100794.13
2022-11-29T20:24:54.594Z,100793.31
2022-11-29T20:27:23.301Z,100790.69
2022-11-29T20:29:50.726Z,100795.19
2022-11-29T20:32:18.383Z,100795.19
2022-11-29T20:34:46.392Z,100800.56
2022-11-29T20:37:30.139Z,100797.91
2022-11-29T20:39:58.987Z,100737.72
2022-11-29T20:42:51.584Z,100776.44
2022-11-29T20:45:19.549Z,100722.97
2022-11-29T20:47:50.828Z,100761.00
2022-11-29T20:50:23.123Z,100761.09
2022-11-29T20:52:57.487Z,100794.72
2022-11-29T20:55:24.925Z,100794.78
2022-11-29T20:57:52.419Z,100797.50
2022-11-29T21:00:20.630Z,100795.78
2022-11-29T21:02:48.092Z,100793.19
2022-11-29T21:05:16.305Z,100799.34
2022-11-29T21:07:43.892Z,100771.91
2022-11-29T21:10:14.677Z,100799.41
2022-11-29T21:12:42.622Z,100807.41
2022-11-29T21:15:11.968Z,100803.03
2022-11-29T21:17:40.585Z,100804.03
2022-11-29T21:20:09.091Z,100807.59
2022-11-29T21:22:39.336Z,100756.75
2022-11-29T21:25:10.869Z,100803.16
2022-11-29T21:27:40.250Z,100803.22
2022-11-29T21:30:13.945Z,100801.59
2022-11-29T21:32:42.501Z,100804.28
2022-11-29T21:35:10.181Z,100804.38
2022-11-29T21:37:37.632Z,100802.63
2022-11-29T21:40:06.069Z,100806.13
2022-11-29T21:42:33.568Z,100807.06
2022-11-29T21:45:02.403Z,100810.63
2022-11-29T21:47:30.404Z,100812.50
2022-11-29T21:49:57.870Z,100816.03
2022-11-29T21:52:25.326Z,100816.97
2022-11-29T21:54:52.783Z,100815.25
2022-11-29T21:57:20.219Z,100816.16
2022-11-29T21:59:47.716Z,100822.34
2022-11-29T22:02:16.663Z,100815.38
2022-11-29T22:04:44.528Z,100825.97
2022-11-29T22:07:12.287Z,100817.22
2022-11-29T22:09:39.774Z,100826.94
2022-11-29T22:12:26.196Z,100827.81
2022-11-29T22:14:54.972Z,100823.50
2022-11-29T22:17:23.831Z,100820.00
2022-11-29T22:19:51.301Z,100823.50
2022-11-29T22:22:18.803Z,100814.94
2022-11-29T22:24:46.622Z,100826.22
2022-11-29T22:27:14.246Z,100821.88
2022-11-29T22:29:41.723Z,100818.34
2022-11-29T22:32:09.159Z,100817.47
2022-11-29T22:34:37.964Z,100821.06
2022-11-29T22:37:05.433Z,100824.59
2022-11-29T22:39:32.924Z,100822.88
2022-11-29T22:42:00.377Z,100823.81
2022-11-29T22:44:27.873Z,100826.47
2022-11-29T22:46:55.393Z,100825.59
2022-11-29T22:49:23.048Z,100824.72
2022-11-29T22:51:52.207Z,100826.59
2022-11-29T22:54:20.161Z,100828.34
2022-11-29T22:56:47.746Z,100831.00
2022-11-29T22:59:15.221Z,100827.56
2022-11-29T23:01:42.979Z,100791.47
2022-11-29T23:04:11.221Z,100828.47
2022-11-29T23:06:39.492Z,100832.06
2022-11-29T23:09:10.568Z,100794.97
2022-11-29T23:11:38.118Z,100832.13
2022-11-29T23:14:05.700Z,100837.47
2022-11-29T23:16:33.607Z,100828.66
2022-11-29T23:19:01.309Z,100826.94
2022-11-29T23:21:29.595Z,100788.16
2022-11-29T23:23:57.128Z,100826.94
2022-11-29T23:26:26.752Z,100827.78
2022-11-29T23:28:54.310Z,100764.91
2022-11-29T23:31:22.351Z,100820.84
2022-11-29T23:33:49.953Z,100803.72
2022-11-29T23:36:17.573Z,100757.97
2022-11-29T23:38:45.070Z,100824.50
2022-11-29T23:41:12.822Z,100820.91
2022-11-29T23:43:42.064Z,100827.97
2022-11-29T23:46:10.477Z,100835.06
2022-11-29T23:48:37.998Z,100827.19
2022-11-29T23:51:05.506Z,100838.66
2022-11-29T23:53:33.186Z,100836.03
2022-11-29T23:56:01.302Z,100800.03
2022-11-29T23:58:29.359Z,100837.91
